Time;durP1;ratioP1;P1;durP2;ratioP2;P2;SDS_P1;SDS_P2;PMS_P1;PMS_P2;Temp;Humidity;BMP_temperature;BMP_pressure;BME280_temperature;BME280_humidity;BME280_pressure;Samples;Min_cycle;Max_cycle;Signal;HPM_P1;HPM_P2
2022/01/25 00:26:18;;;;;;;13.83;11.90;;;6.30;99.90;;;;;;4989736;28;20574;-83
2022/01/25 00:28:50;;;;;;;12.73;11.20;;;6.30;99.90;;;;;;4989516;28;20474;-83
2022/01/25 00:31:17;;;;;;;13.33;11.93;;;6.20;99.90;;;;;;5005101;28;20487;-83
2022/01/25 00:33:48;;;;;;;13.83;12.43;;;6.10;99.90;;;;;;4996451;28;20642;-87
2022/01/25 00:36:18;;;;;;;12.73;11.43;;;6.10;99.90;;;;;;5003602;28;20467;-82
2022/01/25 00:38:45;;;;;;;14.13;12.57;;;6.20;99.90;;;;;;4989203;28;20466;-80
2022/01/25 00:44:21;;;;;;;14.00;12.60;;;6.40;99.90;;;;;;5588074;23;21019;-81
2022/01/25 00:46:48;;;;;;;13.50;12.10;;;6.40;99.90;;;;;;4992684;28;20490;-83
2022/01/25 00:49:25;;;;;;;17.30;13.37;;;6.30;99.90;;;;;;4991117;28;20528;-82
2022/01/25 00:54:47;;;;;;;14.03;12.50;;;6.30;99.90;;;;;;6044660;23;20943;-82
2022/01/25 00:57:15;;;;;;;12.57;11.27;;;6.30;99.90;;;;;;4971368;28;20485;-82
2022/01/25 00:59:45;;;;;;;14.03;11.53;;;6.20;99.90;;;;;;4969520;28;20566;-82
2022/01/25 01:02:16;;;;;;;14.00;12.60;;;6.40;99.90;;;;;;4978068;28;20512;-84
2022/01/25 01:04:47;;;;;;;14.37;11.83;;;6.30;99.90;;;;;;4979832;28;20470;-83
2022/01/25 01:07:16;;;;;;;12.93;11.57;;;6.80;99.90;;;;;;4983919;28;20470;-85
2022/01/25 01:09:46;;;;;;;14.03;12.37;;;6.30;99.90;;;;;;4991461;28;20481;-86
2022/01/25 01:12:28;;;;;;;13.47;12.27;;;6.00;99.90;;;;;;4994327;28;20487;-84
2022/01/25 01:15:05;;;;;;;13.80;12.43;;;6.10;99.90;;;;;;4993686;28;20478;-85
2022/01/25 01:31:28;;;;;;;12.17;10.70;;;6.20;99.90;;;;;;4981276;28;20949;-85
2022/01/25 01:34:20;;;;;;;12.30;11.20;;;6.10;99.90;;;;;;4979339;28;20840;-83
2022/01/25 01:44:20;;;;;;;15.07;13.50;;;5.90;99.90;;;;;;4984993;28;20915;-85
2022/01/25 01:47:02;;;;;;;15.30;11.17;;;5.90;99.90;;;;;;4976719;28;20467;-83
2022/01/25 01:49:30;;;;;;;14.03;12.27;;;6.10;99.90;;;;;;4980186;28;20452;-83
2022/01/25 01:51:57;;;;;;;15.70;14.20;;;6.10;99.90;;;;;;4977556;28;20484;-82
2022/01/25 01:54:24;;;;;;;14.67;12.10;;;5.90;99.90;;;;;;4980446;28;20529;-86
2022/01/25 01:56:51;;;;;;;12.70;11.50;;;6.20;99.90;;;;;;4976771;28;20527;-85
2022/01/25 01:59:18;;;;;;;17.30;12.47;;;6.20;99.90;;;;;;4978585;28;21032;-85
2022/01/25 02:01:47;;;;;;;13.13;11.80;;;6.20;99.90;;;;;;4978658;28;20480;-84
2022/01/25 02:04:15;;;;;;;13.60;12.20;;;6.00;99.90;;;;;;4978589;28;20486;-86
2022/01/25 02:06:43;;;;;;;13.67;12.33;;;6.20;99.90;;;;;;4982864;28;20453;-85
2022/01/25 02:09:10;;;;;;;13.43;12.10;;;6.30;99.90;;;;;;4987748;28;20481;-84
2022/01/25 02:11:41;;;;;;;12.77;11.37;;;6.30;99.90;;;;;;4983673;28;20552;-83
2022/01/25 02:14:11;;;;;;;14.53;12.80;;;6.10;99.90;;;;;;4979101;28;20463;-82
2022/01/25 02:30:27;;;;;;;16.03;12.90;;;5.90;99.90;;;;;;5204206;23;20507;-82
2022/01/25 02:32:55;;;;;;;13.37;11.80;;;6.30;99.90;;;;;;4999812;28;20466;-84
2022/01/25 02:35:22;;;;;;;13.00;10.60;;;6.10;99.90;;;;;;5000450;28;20456;-85
2022/01/25 02:37:48;;;;;;;13.70;12.30;;;6.20;99.90;;;;;;5003073;28;20470;-85
2022/01/25 02:40:15;;;;;;;13.57;11.30;;;5.70;99.90;;;;;;5001936;28;20797;-84
2022/01/25 02:42:42;;;;;;;13.23;11.10;;;5.70;99.90;;;;;;5003757;28;20487;-82
2022/01/25 02:45:15;;;;;;;13.80;11.93;;;6.20;99.90;;;;;;5000517;28;20463;-84
2022/01/25 02:50:29;;;;;;;15.40;12.90;;;5.80;99.90;;;;;;5005120;28;20570;-83
2022/01/25 02:52:57;;;;;;;14.63;13.13;;;5.90;99.90;;;;;;5009268;28;20488;-82
2022/01/25 02:55:24;;;;;;;14.37;12.90;;;6.00;99.90;;;;;;5014112;28;20707;-83
2022/01/25 02:57:51;;;;;;;13.80;12.10;;;5.90;99.90;;;;;;5030313;28;20447;-85
2022/01/25 03:00:18;;;;;;;13.53;12.13;;;6.00;99.90;;;;;;5007800;28;20525;-85
2022/01/25 03:02:45;;;;;;;16.90;13.77;;;5.80;99.90;;;;;;5001568;28;20911;-84
2022/01/25 03:05:11;;;;;;;12.70;11.60;;;6.10;99.90;;;;;;5006180;28;20467;-85
2022/01/25 03:07:42;;;;;;;14.30;13.00;;;5.90;99.90;;;;;;5009542;28;20467;-83
2022/01/25 03:10:11;;;;;;;12.97;11.60;;;5.60;99.90;;;;;;5015701;28;20468;-86
2022/01/25 03:12:52;;;;;;;11.30;10.20;;;5.60;99.90;;;;;;5016295;28;20437;-85
2022/01/25 03:17:54;;;;;;;12.90;11.60;;;5.90;99.90;;;;;;5012494;28;20488;-81
2022/01/25 03:20:34;;;;;;;12.77;11.53;;;5.90;99.90;;;;;;5010902;28;20459;-83
2022/01/25 03:23:06;;;;;;;14.40;12.90;;;5.90;99.90;;;;;;5021817;28;20549;-84
2022/01/25 03:25:33;;;;;;;14.80;11.90;;;5.80;99.90;;;;;;5003051;28;20604;-83
2022/01/25 03:28:00;;;;;;;13.67;11.77;;;5.70;99.90;;;;;;5002237;28;20522;-83
2022/01/25 03:30:27;;;;;;;13.27;12.00;;;5.70;99.90;;;;;;5015017;28;20488;-83
2022/01/25 03:32:53;;;;;;;13.23;11.93;;;5.60;99.90;;;;;;5016487;28;20460;-85
2022/01/25 03:35:20;;;;;;;14.13;12.60;;;5.50;99.90;;;;;;5005380;28;20463;-82
2022/01/25 03:37:47;;;;;;;14.53;13.00;;;5.70;99.90;;;;;;5005451;28;20521;-83
2022/01/25 03:40:14;;;;;;;12.23;11.00;;;5.80;99.90;;;;;;5005446;28;20481;-82
2022/01/25 03:42:45;;;;;;;13.30;11.93;;;5.70;99.90;;;;;;5003083;28;20560;-84
2022/01/25 03:45:19;;;;;;;12.80;11.50;;;5.90;99.90;;;;;;5009449;28;20464;-86
2022/01/25 03:50:49;;;;;;;12.87;11.30;;;5.80;99.90;;;;;;5014058;28;20477;-85
2022/01/25 03:53:18;;;;;;;13.20;11.80;;;5.90;99.90;;;;;;5016527;28;20487;-85
2022/01/25 03:55:47;;;;;;;14.97;13.30;;;6.10;99.90;;;;;;5018671;28;20548;-82
2022/01/25 03:58:15;;;;;;;14.90;13.43;;;6.00;99.90;;;;;;5032650;28;20529;-86
2022/01/25 04:00:44;;;;;;;13.73;12.20;;;6.10;99.90;;;;;;5017739;28;20488;-85
2022/01/25 04:03:22;;;;;;;14.37;12.87;;;5.90;99.90;;;;;;5017663;28;21964;-83
2022/01/25 04:05:51;;;;;;;15.50;13.83;;;5.70;99.90;;;;;;5014527;28;20481;-85
2022/01/25 04:08:19;;;;;;;13.47;12.07;;;5.80;99.90;;;;;;5013442;28;20454;-86
2022/01/25 04:10:47;;;;;;;13.83;12.20;;;6.20;99.90;;;;;;5015270;28;20513;-84
2022/01/25 04:13:14;;;;;;;15.23;12.60;;;5.90;99.90;;;;;;5106601;23;20495;-84
2022/01/25 04:15:45;;;;;;;14.43;12.90;;;5.80;99.90;;;;;;5012075;28;20538;-82
2022/01/25 04:21:24;;;;;;;14.23;12.73;;;6.00;99.90;;;;;;5010595;28;20521;-84
2022/01/25 04:26:32;;;;;;;15.53;13.03;;;6.10;99.90;;;;;;5007865;28;20463;-84
2022/01/25 04:28:58;;;;;;;14.77;12.03;;;5.90;99.90;;;;;;5015532;28;20453;-84
2022/01/25 04:31:25;;;;;;;13.63;12.27;;;5.90;99.90;;;;;;5017903;28;20640;-86
2022/01/25 04:50:46;;;;;;;14.07;12.50;;;5.70;99.90;;;;;;5011661;28;20464;-84
2022/01/25 04:56:04;;;;;;;16.83;13.07;;;5.90;99.90;;;;;;5014409;28;20466;-84
2022/01/25 04:58:34;;;;;;;16.20;12.90;;;6.10;99.90;;;;;;5021761;28;20451;-87
2022/01/25 05:01:01;;;;;;;17.43;13.80;;;6.00;99.90;;;;;;5021335;28;20481;-85
2022/01/25 05:03:40;;;;;;;16.40;13.70;;;5.90;99.90;;;;;;5016107;28;20478;-83
2022/01/25 05:06:12;;;;;;;14.50;12.20;;;5.90;99.90;;;;;;5001034;28;20458;-85
2022/01/25 05:08:44;;;;;;;15.13;13.63;;;6.00;99.90;;;;;;5009662;28;21245;-84
2022/01/25 05:11:30;;;;;;;15.40;12.60;;;6.00;99.90;;;;;;5017674;28;20501;-81
2022/01/25 05:24:21;;;;;;;15.93;13.70;;;5.90;99.90;;;;;;5016005;28;20486;-84
2022/01/25 05:26:48;;;;;;;16.70;12.90;;;5.90;99.90;;;;;;5007911;28;20461;-83
2022/01/25 05:29:15;;;;;;;16.77;14.10;;;5.90;99.90;;;;;;5016054;28;20488;-83
2022/01/25 05:31:42;;;;;;;16.77;13.93;;;6.00;99.90;;;;;;5012573;28;20548;-82
2022/01/25 05:34:09;;;;;;;15.80;14.10;;;6.00;99.90;;;;;;5010462;28;20466;-83
2022/01/25 05:36:37;;;;;;;15.80;13.87;;;5.90;99.90;;;;;;5001555;28;20477;-82
2022/01/25 05:39:11;;;;;;;17.40;15.30;;;5.90;99.90;;;;;;5002319;28;20501;-84
2022/01/25 05:41:39;;;;;;;17.97;14.67;;;5.80;99.90;;;;;;5005642;28;20484;-82
2022/01/25 05:46:52;;;;;;;17.10;13.93;;;6.00;99.90;;;;;;5008708;28;20525;-85
2022/01/25 05:49:19;;;;;;;19.60;14.10;;;5.70;99.90;;;;;;5008557;28;20501;-85
2022/01/25 05:51:46;;;;;;;18.07;13.73;;;5.80;99.90;;;;;;5008315;28;20479;-83
2022/01/25 05:54:13;;;;;;;22.20;14.87;;;6.10;99.90;;;;;;5006554;28;20481;-84
2022/01/25 05:56:40;;;;;;;22.07;15.27;;;6.10;99.90;;;;;;5002915;28;21389;-85
2022/01/25 05:59:07;;;;;;;20.37;15.07;;;6.10;99.90;;;;;;5016234;28;20914;-87
2022/01/25 06:01:35;;;;;;;17.00;13.50;;;6.10;99.90;;;;;;5012485;28;21335;-83
2022/01/25 06:04:02;;;;;;;21.03;14.40;;;6.00;99.90;;;;;;5004965;28;20497;-83
2022/01/25 06:06:30;;;;;;;16.50;14.70;;;6.00;99.90;;;;;;5011285;28;20550;-80
2022/01/25 06:08:57;;;;;;;19.67;15.03;;;5.90;99.90;;;;;;5019230;28;20862;-81
2022/01/25 06:11:24;;;;;;;22.50;16.20;;;5.90;99.90;;;;;;5010878;28;20471;-84
2022/01/25 06:13:53;;;;;;;19.37;15.80;;;5.90;99.90;;;;;;5008155;28;20551;-84
2022/01/25 06:16:20;;;;;;;20.93;16.00;;;5.90;99.90;;;;;;5012659;28;20587;-86
2022/01/25 06:18:47;;;;;;;18.23;15.67;;;5.80;99.90;;;;;;5011549;28;20457;-85
2022/01/25 06:21:14;;;;;;;20.90;15.33;;;5.80;99.90;;;;;;5024982;28;20486;-84
2022/01/25 06:23:41;;;;;;;19.97;14.97;;;5.80;99.90;;;;;;5019787;28;20556;-84
2022/01/25 06:26:08;;;;;;;19.40;15.97;;;5.60;99.90;;;;;;5008528;28;20496;-81
2022/01/25 06:28:34;;;;;;;21.30;15.33;;;5.50;99.90;;;;;;5013178;28;20461;-83
2022/01/25 06:31:02;;;;;;;24.53;16.77;;;5.80;99.90;;;;;;5012787;28;20529;-83
2022/01/25 06:33:28;;;;;;;17.57;14.20;;;5.70;99.90;;;;;;4999663;28;20467;-83
2022/01/25 06:35:56;;;;;;;19.87;14.50;;;5.60;99.90;;;;;;5002342;28;20457;-81
2022/01/25 06:38:23;;;;;;;19.97;16.17;;;5.60;99.90;;;;;;4999470;28;20472;-84
2022/01/25 06:40:50;;;;;;;21.00;16.70;;;5.70;99.90;;;;;;5008537;28;20489;-85
2022/01/25 06:43:17;;;;;;;19.80;16.27;;;5.70;99.90;;;;;;5008000;28;20541;-85
2022/01/25 06:45:50;;;;;;;19.10;13.93;;;5.90;99.90;;;;;;5012452;28;20481;-84
2022/01/25 06:48:17;;;;;;;16.30;13.10;;;5.90;99.90;;;;;;5009894;28;20553;-82
2022/01/25 06:50:44;;;;;;;20.97;15.77;;;5.70;99.90;;;;;;5007268;28;20476;-86
2022/01/25 06:53:11;;;;;;;17.13;14.53;;;5.90;99.90;;;;;;5002985;28;20516;-80
2022/01/25 06:55:39;;;;;;;20.33;15.53;;;5.90;99.90;;;;;;5015258;28;20451;-83
2022/01/25 06:58:07;;;;;;;21.30;15.97;;;5.70;99.90;;;;;;5015173;28;20978;-79
2022/01/25 07:00:35;;;;;;;22.77;16.37;;;5.50;99.90;;;;;;5012449;28;20485;-87
2022/01/25 07:03:01;;;;;;;19.63;15.60;;;5.60;99.90;;;;;;5008782;28;20450;-86
2022/01/25 07:05:29;;;;;;;21.77;15.80;;;5.80;99.90;;;;;;5004062;28;20487;-84
2022/01/25 07:07:56;;;;;;;23.17;16.20;;;5.70;99.90;;;;;;5010419;28;20457;-84
2022/01/25 07:10:23;;;;;;;21.60;16.70;;;5.80;99.90;;;;;;5012298;28;20581;-82
2022/01/25 07:12:50;;;;;;;22.63;16.67;;;5.60;99.90;;;;;;5010947;28;20450;-82
2022/01/25 07:15:17;;;;;;;21.17;15.13;;;5.60;99.90;;;;;;5018421;28;20467;-83
2022/01/25 07:17:44;;;;;;;20.50;16.23;;;5.60;99.90;;;;;;5008576;28;20462;-83
2022/01/25 07:20:12;;;;;;;18.17;14.60;;;5.60;99.90;;;;;;5016377;28;20548;-83
2022/01/25 07:22:41;;;;;;;18.50;15.00;;;5.60;99.90;;;;;;5004230;28;20466;-85
2022/01/25 07:25:10;;;;;;;19.70;15.43;;;5.80;99.90;;;;;;4999583;28;20483;-85
2022/01/25 07:27:38;;;;;;;20.20;16.00;;;5.70;99.90;;;;;;5007586;28;20470;-82
2022/01/25 07:30:07;;;;;;;22.07;16.53;;;5.70;99.90;;;;;;5001490;28;20980;-84
2022/01/25 07:32:34;;;;;;;18.40;13.90;;;5.80;99.90;;;;;;5004317;28;20459;-84
2022/01/25 07:35:03;;;;;;;20.63;16.10;;;5.90;99.90;;;;;;5005876;28;20663;-85
2022/01/25 07:37:31;;;;;;;23.50;16.10;;;5.70;99.90;;;;;;4998333;28;20546;-82
2022/01/25 07:39:59;;;;;;;21.73;15.17;;;5.50;99.90;;;;;;5001420;28;20459;-82
2022/01/25 07:42:28;;;;;;;20.47;16.47;;;5.60;99.90;;;;;;5007057;28;20480;-81
2022/01/25 07:45:11;;;;;;;23.10;18.27;;;5.70;99.90;;;;;;5014318;28;20481;-81
2022/01/25 07:47:39;;;;;;;18.60;15.63;;;5.60;99.90;;;;;;5022568;28;20451;-85
2022/01/25 07:50:10;;;;;;;19.30;14.90;;;5.60;99.90;;;;;;5006304;28;20544;-84
2022/01/25 07:52:38;;;;;;;20.47;16.40;;;5.70;99.90;;;;;;5008009;28;20473;-84
2022/01/25 07:55:06;;;;;;;20.20;15.50;;;5.80;99.90;;;;;;5007663;28;20982;-82
2022/01/25 07:57:33;;;;;;;20.10;16.20;;;5.90;99.90;;;;;;5012252;28;20464;-85
2022/01/25 08:00:00;;;;;;;19.33;15.53;;;5.90;99.90;;;;;;5007283;28;20477;-84
2022/01/25 08:02:27;;;;;;;23.43;15.13;;;5.90;99.90;;;;;;5004050;28;20575;-83
2022/01/25 08:05:17;;;;;;;18.20;14.50;;;6.00;99.90;;;;;;5009460;28;20580;-84
2022/01/25 08:08:03;;;;;;;20.10;14.80;;;5.80;99.90;;;;;;4969792;28;20445;-85
2022/01/25 08:10:44;;;;;;;23.47;15.70;;;5.90;99.90;;;;;;4968752;28;20596;-83
2022/01/25 08:13:13;;;;;;;24.60;16.30;;;5.90;99.90;;;;;;4971107;28;20851;-82
2022/01/25 08:15:56;;;;;;;20.70;16.20;;;5.90;99.90;;;;;;4952571;28;20453;-84
2022/01/25 08:18:37;;;;;;;22.43;16.70;;;5.80;99.90;;;;;;4953874;28;20538;-82
2022/01/25 08:21:27;;;;;;;20.07;15.33;;;5.50;99.90;;;;;;4989235;28;20800;-86
2022/01/25 08:24:13;;;;;;;19.63;15.10;;;5.80;99.90;;;;;;4954470;28;20590;-84
2022/01/25 08:27:04;;;;;;;18.07;14.60;;;6.00;99.90;;;;;;4966408;28;20474;-84
2022/01/25 08:29:45;;;;;;;21.40;16.30;;;6.00;99.90;;;;;;4957355;28;20983;-81
2022/01/25 08:32:19;;;;;;;24.00;17.17;;;5.80;99.90;;;;;;4969340;28;20491;-85
2022/01/25 08:35:06;;;;;;;23.93;16.20;;;5.90;99.90;;;;;;4960760;28;20463;-82
2022/01/25 08:37:51;;;;;;;21.77;15.60;;;5.90;99.90;;;;;;4981143;28;20467;-83
2022/01/25 08:40:19;;;;;;;20.43;16.23;;;5.80;99.90;;;;;;5006709;28;20477;-82
2022/01/25 08:42:57;;;;;;;21.47;16.43;;;5.70;99.90;;;;;;5002032;28;20456;-82
2022/01/25 08:45:25;;;;;;;22.63;16.33;;;5.70;99.90;;;;;;4998114;28;20905;-82
2022/01/25 08:48:07;;;;;;;24.23;17.20;;;5.70;99.90;;;;;;5007778;28;20463;-84
2022/01/25 08:51:20;;;;;;;19.33;14.90;;;5.80;99.90;;;;;;4999534;28;20480;-85
2022/01/25 08:54:01;;;;;;;23.93;15.90;;;5.90;99.90;;;;;;4934733;29;20837;-84
2022/01/25 08:56:36;;;;;;;30.50;17.93;;;6.00;99.90;;;;;;4944572;29;20568;-84
2022/01/25 08:59:21;;;;;;;21.90;15.83;;;6.00;99.90;;;;;;4929198;29;20452;-81
2022/01/25 09:01:48;;;;;;;22.43;17.53;;;5.90;99.90;;;;;;4967251;28;20958;-84
2022/01/25 09:04:15;;;;;;;21.40;15.37;;;5.70;99.90;;;;;;5017333;28;20486;-84
2022/01/25 09:06:42;;;;;;;26.10;16.60;;;5.80;99.90;;;;;;5005759;28;20466;-85
2022/01/25 09:09:10;;;;;;;26.60;16.27;;;5.80;99.90;;;;;;5004125;28;20453;-85
2022/01/25 09:11:39;;;;;;;20.90;15.90;;;5.60;99.90;;;;;;5010744;28;20483;-84
2022/01/25 09:14:07;;;;;;;23.37;17.40;;;5.70;99.90;;;;;;5018396;28;20472;-85
2022/01/25 09:16:35;;;;;;;21.03;14.80;;;5.80;99.90;;;;;;5014417;28;20458;-85
2022/01/25 09:19:03;;;;;;;25.47;16.60;;;5.90;99.90;;;;;;5010805;28;20571;-82
2022/01/25 09:21:30;;;;;;;21.80;15.90;;;5.80;99.90;;;;;;5013517;28;20809;-82
2022/01/25 09:23:57;;;;;;;23.00;15.50;;;5.80;99.90;;;;;;5014207;28;21006;-86
2022/01/25 09:26:24;;;;;;;23.47;16.70;;;5.90;99.90;;;;;;5001289;28;20464;-86
2022/01/25 09:28:54;;;;;;;24.33;16.07;;;5.80;99.90;;;;;;5001968;28;20457;-85
2022/01/25 09:31:22;;;;;;;25.80;16.50;;;5.70;99.90;;;;;;5002425;28;21019;-84
2022/01/25 09:33:49;;;;;;;22.77;16.40;;;5.70;99.90;;;;;;5002631;28;20821;-83
2022/01/25 09:36:16;;;;;;;25.60;18.83;;;5.70;99.90;;;;;;5009570;28;20985;-84
2022/01/25 09:38:43;;;;;;;27.20;17.30;;;5.70;99.90;;;;;;5008050;28;20467;-83
2022/01/25 09:41:10;;;;;;;21.10;15.43;;;5.80;99.90;;;;;;5008411;28;20998;-86
2022/01/25 09:43:37;;;;;;;27.03;17.10;;;5.90;99.90;;;;;;5016512;28;20458;-83
2022/01/25 09:46:04;;;;;;;20.93;15.53;;;6.00;99.90;;;;;;5004365;28;20830;-83
2022/01/25 09:48:30;;;;;;;22.60;15.67;;;6.10;99.90;;;;;;5017559;28;20558;-84
2022/01/25 09:50:58;;;;;;;23.83;17.53;;;6.10;99.90;;;;;;5002730;28;20480;-85
2022/01/25 09:53:26;;;;;;;22.50;15.77;;;6.10;99.90;;;;;;5016907;28;20464;-83
2022/01/25 09:55:55;;;;;;;23.50;16.80;;;5.80;99.90;;;;;;5009007;28;20550;-84
2022/01/25 09:58:22;;;;;;;25.97;18.00;;;5.80;99.90;;;;;;4999751;28;20526;-82
2022/01/25 10:00:56;;;;;;;29.50;20.67;;;5.90;99.90;;;;;;5001357;28;20489;-82
2022/01/25 10:03:29;;;;;;;25.30;16.20;;;6.00;99.90;;;;;;5004977;28;20879;-85
2022/01/25 10:05:59;;;;;;;21.63;15.30;;;6.00;99.90;;;;;;5002802;28;20749;-85
2022/01/25 10:08:35;;;;;;;24.03;17.07;;;6.00;99.90;;;;;;5004350;28;20453;-84
2022/01/25 10:11:06;;;;;;;23.17;17.17;;;5.90;99.90;;;;;;5000312;28;21013;-84
2022/01/25 10:13:36;;;;;;;22.37;17.33;;;5.90;99.90;;;;;;5000809;28;20463;-85
2022/01/25 10:16:11;;;;;;;23.00;16.97;;;5.90;99.90;;;;;;5003266;28;20461;-83
2022/01/25 10:18:52;;;;;;;32.03;19.30;;;6.10;99.90;;;;;;5004732;28;20495;-84
2022/01/25 10:21:35;;;;;;;24.47;18.00;;;6.10;99.90;;;;;;5005769;28;20831;-84
2022/01/25 10:24:15;;;;;;;24.10;18.30;;;6.00;99.90;;;;;;5003126;28;20466;-83
2022/01/25 10:27:02;;;;;;;25.00;18.30;;;6.00;99.90;;;;;;4995899;28;20745;-87
2022/01/25 10:29:36;;;;;;;24.83;17.27;;;6.30;99.90;;;;;;4996308;28;20646;-84
2022/01/25 10:32:13;;;;;;;25.13;18.70;;;6.30;99.90;;;;;;4999707;28;20484;-80
2022/01/25 10:34:46;;;;;;;27.93;18.73;;;6.20;99.90;;;;;;5002670;28;20536;-83
2022/01/25 10:37:19;;;;;;;26.43;17.97;;;6.00;99.90;;;;;;4996576;28;20468;-84
2022/01/25 10:39:48;;;;;;;22.80;17.47;;;6.10;99.90;;;;;;5000559;28;20909;-82
2022/01/25 10:42:25;;;;;;;23.60;17.70;;;5.90;99.90;;;;;;5002169;28;20489;-82
2022/01/25 10:44:55;;;;;;;25.40;18.17;;;5.80;99.90;;;;;;4999066;28;20492;-83
2022/01/25 10:47:46;;;;;;;25.60;17.60;;;5.70;99.90;;;;;;4998107;28;20485;-82
2022/01/25 10:50:18;;;;;;;25.53;17.10;;;6.00;99.90;;;;;;4998872;28;20476;-84
2022/01/25 10:52:46;;;;;;;23.00;16.73;;;5.90;99.90;;;;;;4999640;28;20447;-84
2022/01/25 10:55:14;;;;;;;24.10;17.77;;;5.80;99.90;;;;;;4996312;28;20451;-86
2022/01/25 10:57:41;;;;;;;20.57;16.00;;;5.80;99.90;;;;;;4999456;28;20459;-85
2022/01/25 11:00:32;;;;;;;24.47;17.20;;;5.80;99.90;;;;;;4991973;28;21085;-83
2022/01/25 11:02:59;;;;;;;23.70;17.83;;;5.80;99.90;;;;;;4992554;28;20466;-84
2022/01/25 11:05:31;;;;;;;24.60;17.60;;;6.20;99.90;;;;;;5000149;28;20490;-83
2022/01/25 11:08:09;;;;;;;24.37;18.37;;;6.20;99.90;;;;;;4995116;28;21059;-85
2022/01/25 11:10:38;;;;;;;23.13;18.20;;;6.50;99.90;;;;;;4999297;28;20474;-83
2022/01/25 11:13:21;;;;;;;23.00;17.80;;;6.30;99.90;;;;;;5001809;28;20473;-82
2022/01/25 11:15:48;;;;;;;25.40;17.10;;;6.50;99.90;;;;;;5010087;28;20485;-83
2022/01/25 11:18:15;;;;;;;24.67;17.07;;;6.50;99.90;;;;;;5002246;28;20860;-84
2022/01/25 11:20:43;;;;;;;24.33;17.17;;;6.50;99.90;;;;;;5019277;28;20465;-86
2022/01/25 11:23:11;;;;;;;24.83;17.03;;;6.50;99.90;;;;;;5019126;28;20585;-86
2022/01/25 11:25:40;;;;;;;26.53;17.33;;;6.30;99.90;;;;;;5018246;28;20491;-87
2022/01/25 11:28:07;;;;;;;31.37;21.53;;;6.40;99.90;;;;;;5028181;28;20472;-85
2022/01/25 11:30:38;;;;;;;27.33;19.03;;;6.50;99.90;;;;;;5021145;28;20534;-86
2022/01/25 11:33:06;;;;;;;24.30;17.43;;;6.60;99.90;;;;;;5018438;28;20472;-84
2022/01/25 11:35:34;;;;;;;27.97;18.23;;;6.50;99.90;;;;;;5019679;28;20480;-85
2022/01/25 11:38:01;;;;;;;24.17;17.57;;;6.40;99.90;;;;;;5022745;28;20583;-85
2022/01/25 11:40:32;;;;;;;29.10;19.03;;;6.40;99.90;;;;;;5026544;28;20484;-86
2022/01/25 11:43:06;;;;;;;26.00;17.40;;;6.30;99.90;;;;;;5021420;28;20525;-85
2022/01/25 11:45:40;;;;;;;26.97;18.97;;;6.30;99.90;;;;;;5014240;28;20480;-81
2022/01/25 11:48:08;;;;;;;25.20;16.90;;;6.30;99.90;;;;;;5004573;28;20550;-83
2022/01/25 11:50:41;;;;;;;25.70;18.00;;;6.30;99.90;;;;;;5004258;28;20513;-82
2022/01/25 11:53:14;;;;;;;26.97;18.30;;;6.20;99.90;;;;;;5008950;28;20458;-83
2022/01/25 11:55:48;;;;;;;27.80;17.87;;;6.20;99.90;;;;;;5004979;28;20474;-84
2022/01/25 11:58:27;;;;;;;28.47;18.80;;;6.20;99.90;;;;;;5006299;28;20467;-80
2022/01/25 12:00:56;;;;;;;26.43;17.73;;;6.10;99.90;;;;;;5015231;28;20849;-82
2022/01/25 12:03:38;;;;;;;26.23;18.47;;;6.00;99.90;;;;;;5004524;28;20465;-85
2022/01/25 12:06:07;;;;;;;24.67;18.00;;;5.90;99.90;;;;;;5010152;28;20544;-85
2022/01/25 12:08:41;;;;;;;26.83;18.20;;;6.00;99.90;;;;;;5012075;28;20571;-85
2022/01/25 12:14:52;;;;;;;25.57;17.77;;;5.80;99.90;;;;;;5005204;28;20552;-85
2022/01/25 12:17:24;;;;;;;24.00;16.70;;;5.60;99.90;;;;;;5003248;28;20534;-85
2022/01/25 12:20:02;;;;;;;22.10;16.70;;;5.60;99.90;;;;;;5000316;28;20465;-85
2022/01/25 12:22:36;;;;;;;23.03;18.20;;;5.70;99.90;;;;;;4999639;28;20529;-84
2022/01/25 12:25:09;;;;;;;26.83;18.07;;;5.80;99.90;;;;;;4999204;28;20527;-84
2022/01/25 12:28:06;;;;;;;27.07;18.20;;;6.10;99.90;;;;;;4994200;28;20895;-82
2022/01/25 12:30:40;;;;;;;27.93;18.60;;;6.40;99.90;;;;;;5001065;28;20510;-84
2022/01/25 12:33:20;;;;;;;24.40;17.17;;;6.40;99.90;;;;;;5005441;28;20457;-80
2022/01/25 12:35:54;;;;;;;22.23;16.53;;;6.50;99.90;;;;;;5027460;28;20430;-83
2022/01/25 12:38:42;;;;;;;23.70;15.93;;;6.30;99.90;;;;;;5019161;28;20456;-81
2022/01/25 12:41:21;;;;;;;27.73;16.73;;;6.30;99.90;;;;;;5007786;28;20472;-83
2022/01/25 12:43:53;;;;;;;29.43;18.53;;;6.10;99.90;;;;;;5001811;28;20455;-82
2022/01/25 12:46:39;;;;;;;24.43;16.30;;;6.30;99.90;;;;;;5010799;28;20541;-84
2022/01/25 12:49:11;;;;;;;27.90;16.33;;;6.30;99.90;;;;;;5013021;28;20465;-83
2022/01/25 12:51:42;;;;;;;23.20;16.10;;;6.30;99.90;;;;;;5014958;28;20478;-83
2022/01/25 12:54:39;;;;;;;26.80;17.27;;;6.80;99.90;;;;;;5007999;28;20553;-86
2022/01/25 12:57:08;;;;;;;23.57;16.40;;;6.50;99.90;;;;;;5006568;28;20571;-85
2022/01/25 12:59:37;;;;;;;26.03;17.73;;;6.20;99.90;;;;;;5013182;28;20466;-84
2022/01/25 13:02:04;;;;;;;26.50;16.03;;;6.60;99.90;;;;;;5002592;28;20475;-85
2022/01/25 13:04:32;;;;;;;24.70;16.33;;;6.40;99.90;;;;;;5000286;28;20496;-84
2022/01/25 13:07:00;;;;;;;20.17;15.70;;;7.00;99.90;;;;;;5000532;28;21076;-84
2022/01/25 13:09:49;;;;;;;;;;;;;;;;;;;;;
2022/01/25 13:12:36;;;;;;;21.73;15.00;;;6.70;99.90;;;;;;5006884;28;20504;-86
2022/01/25 13:15:26;;;;;;;22.77;15.93;;;6.60;99.90;;;;;;5003602;28;20500;-83
2022/01/25 13:18:10;;;;;;;30.60;17.17;;;6.50;99.90;;;;;;5005520;28;20466;-81
2022/01/25 13:20:48;;;;;;;24.77;15.53;;;6.40;99.90;;;;;;5012369;28;20558;-85
2022/01/25 13:23:15;;;;;;;31.23;16.70;;;6.40;99.90;;;;;;5016310;28;20995;-86
2022/01/25 13:26:09;;;;;;;22.30;15.80;;;7.00;99.90;;;;;;5023572;28;20581;-85
2022/01/25 13:31:23;;;;;;;24.57;17.10;;;6.40;99.90;;;;;;5016606;28;20565;-84
2022/01/25 13:33:53;;;;;;;25.63;16.87;;;6.50;99.90;;;;;;5008629;28;20515;-85
2022/01/25 13:36:21;;;;;;;25.97;16.80;;;6.50;99.90;;;;;;5006813;28;20470;-86
2022/01/25 13:38:49;;;;;;;24.03;16.53;;;6.70;99.90;;;;;;4998353;28;20478;-84
2022/01/25 13:46:33;;;;;;;23.27;17.10;;;6.60;99.90;;;;;;5002950;28;20499;-82
2022/01/25 13:49:11;;;;;;;27.40;16.77;;;6.10;99.90;;;;;;5004818;28;20466;-83
2022/01/25 13:51:54;;;;;;;30.40;18.07;;;6.40;99.90;;;;;;5003316;28;20505;-82
2022/01/25 13:54:27;;;;;;;24.40;16.47;;;6.50;99.90;;;;;;5010817;28;20474;-81
2022/01/25 13:56:55;;;;;;;25.90;16.27;;;6.40;99.90;;;;;;5007261;28;21337;-82
2022/01/25 13:59:24;;;;;;;28.47;17.13;;;6.30;99.90;;;;;;5017772;28;20457;-87
2022/01/25 14:01:51;;;;;;;28.07;17.83;;;6.30;99.90;;;;;;5007413;28;20492;-85
2022/01/25 14:04:22;;;;;;;27.10;18.57;;;6.60;99.90;;;;;;4997103;28;20950;-85
2022/01/25 14:06:57;;;;;;;27.23;18.33;;;6.50;99.90;;;;;;5027802;28;20485;-85
2022/01/25 14:09:31;;;;;;;24.83;17.77;;;6.50;99.90;;;;;;5018126;28;20468;-84
2022/01/25 14:25:47;;;;;;;29.63;18.50;;;6.50;99.90;;;;;;5003513;28;20476;-83
2022/01/25 14:28:22;;;;;;;26.73;17.27;;;6.40;99.90;;;;;;4994369;28;20802;-82
2022/01/25 14:30:54;;;;;;;31.77;18.03;;;6.60;99.90;;;;;;4995070;28;20488;-83
2022/01/25 14:33:30;;;;;;;28.27;17.60;;;6.50;99.90;;;;;;4996040;28;20475;-82
2022/01/25 14:36:00;;;;;;;28.00;18.97;;;6.50;99.90;;;;;;4991068;28;20496;-85
2022/01/25 14:38:34;;;;;;;26.97;18.60;;;6.40;99.90;;;;;;4993800;28;21813;-84
2022/01/25 14:41:14;;;;;;;29.17;17.70;;;6.30;99.90;;;;;;4994486;28;21698;-84
2022/01/25 14:43:51;;;;;;;28.30;18.33;;;6.30;99.90;;;;;;4994776;28;20462;-83
2022/01/25 14:46:31;;;;;;;23.70;16.33;;;6.20;99.90;;;;;;4992703;28;20505;-83
2022/01/25 14:49:06;;;;;;;26.40;17.50;;;6.30;99.90;;;;;;4994895;28;20466;-82
2022/01/25 14:51:39;;;;;;;28.07;17.50;;;6.20;99.90;;;;;;4992758;28;20485;-83
2022/01/25 14:54:08;;;;;;;25.77;17.70;;;6.40;99.90;;;;;;4993445;28;20497;-85
2022/01/25 14:56:38;;;;;;;30.63;17.90;;;6.20;99.90;;;;;;4996178;28;20467;-85
2022/01/25 15:01:34;;;;;;;27.90;18.33;;;6.40;99.90;;;;;;4995338;28;20485;-85
2022/01/25 15:04:02;;;;;;;28.30;19.00;;;6.50;99.90;;;;;;4997972;28;20471;-83
2022/01/25 15:06:29;;;;;;;27.73;19.13;;;6.40;99.90;;;;;;4998315;28;20492;-85
2022/01/25 15:08:56;;;;;;;30.43;19.00;;;6.30;99.90;;;;;;4999077;28;20458;-85
2022/01/25 15:11:31;;;;;;;26.97;18.17;;;6.40;99.90;;;;;;4996625;28;20819;-83
2022/01/25 15:14:06;;;;;;;32.40;19.10;;;6.40;99.90;;;;;;5001267;28;20461;-83
2022/01/25 15:16:33;;;;;;;25.50;17.33;;;6.30;99.90;;;;;;5001799;28;20464;-84
2022/01/25 15:19:00;;;;;;;28.93;18.47;;;6.40;99.90;;;;;;5007999;28;20470;-84
2022/01/25 15:21:27;;;;;;;27.20;18.20;;;6.50;99.90;;;;;;5000708;28;20477;-85